• Join FlightAware (Why Join?)
  • Login
  • US Flag 
10:08AM EDT


 

Airport Tracker/Info


-or-


 

Live Flight TrackerFlight Track Log ✈ UAL3773 ✈ 18-Apr-2013 ✈ KCLT - KIAD

Flight Track Log - Related Links

Times and Time Zones

All times are in EDT time to prevent confusion due to time zone crossing. See the UAL3773 flight status page for this flight to view local times or setup timezone preferences in your user account.

Time Position Orientation Groundspeed Altitude Reporting Facility
EDT Latitude Longitude Course Direction KTS MPH feet Rate Location/Type
10:44AM 35.1933 -80.9336 72° East 161 185 1,400  Level FAA TRACON SMA TRACON (SMA)
10:45AM 35.1764 -80.9322 176° South 157 181 2,300 1,920 Climbing FAA TRACON SMA TRACON (SMA)
10:45AM 35.1608 -80.9300 173° South 193 222 2,700 1,260 Climbing FAA TRACON SMA TRACON (SMA)
10:45AM 35.1411 -80.9156 149° Southeast 230 265 3,200 1,920 Climbing FAA TRACON SMA TRACON (SMA)
10:46AM 35.1219 -80.8942 138° Southeast 246 283 4,100 2,280 Climbing FAA TRACON SMA TRACON (SMA)
10:46AM 35.1097 -80.8739 126° Southeast 256 295 4,800 2,700 Climbing FAA TRACON SMA TRACON (SMA)
10:46AM 35.1081 -80.8464 94° East 256 295 5,800 2,880 Climbing FAA TRACON SMA TRACON (SMA)
10:47AM 35.1172 -80.8211 66° East 270 311 6,600 2,340 Climbing FAA TRACON SMA TRACON (SMA)
10:47AM 35.1319 -80.7978 52° Northeast 281 323 7,400 2,820 Climbing FAA TRACON SMA TRACON (SMA)
10:47AM 35.1506 -80.7686 52° Northeast 284 327 8,500 2,760 Climbing FAA TRACON SMA TRACON (SMA)
10:48AM 35.2491 -80.5316 30° Northeast  Level FlightAware Approximate
10:48AM 35.1661 -80.7447 51° Northeast 290 334 9,200  Level FAA TRACON SMA TRACON (SMA)
10:48AM 35.1819 -80.7203 52° Northeast 296 341 10,000 2,520 Climbing FAA TRACON SMA TRACON (SMA)
10:48AM 35.2017 -80.6892 52° Northeast 301 346 10,900 1,860 Climbing FAA TRACON SMA TRACON (SMA)
10:49AM 35.3375 -80.4510 72° East  Level FlightAware Approximate
10:49AM 35.2181 -80.6631 52° Northeast 311 358 11,300  Level FAA TRACON SMA TRACON (SMA)
10:49AM 35.2364 -80.6347 52° Northeast 341 392 11,800 1,680 Climbing FAA TRACON SMA TRACON (SMA)
10:49AM 35.2594 -80.5986 52° Northeast 353 406 12,400 1,920 Climbing FAA TRACON SMA TRACON (SMA)
10:50AM 35.2778 -80.5692 53° Northeast 355 409 13,100 1,800 Climbing FAA TRACON SMA TRACON (SMA)
10:50AM 35.2969 -80.5392 52° Northeast 359 413 13,600 1,860 Climbing FAA TRACON SMA TRACON (SMA)
10:50AM 35.3208 -80.5008 53° Northeast 366 421 14,400 2,100 Climbing FAA TRACON SMA TRACON (SMA)
10:51AM 35.3361 -80.4653 62° Northeast 379 436 15,000 2,100 Climbing FAA TRACON SMA TRACON (SMA)
10:51AM 35.3508 -80.4186 69° East 382 440 15,800 2,100 Climbing FAA TRACON SMA TRACON (SMA)
10:51AM 35.3625 -80.3806 69° East 386 444 16,400 1,680 Climbing FAA TRACON SMA TRACON (SMA)
10:52AM 35.3742 -80.3422 70° East 389 448 16,900 1,560 Climbing FAA TRACON SMA TRACON (SMA)
10:52AM 35.3861 -80.3033 69° East 393 452 17,500 1,620 Climbing FAA TRACON SMA TRACON (SMA)
10:52AM 35.4008 -80.2539 70° East 399 459 18,000 1,380 Climbing FAA TRACON SMA TRACON (SMA)
10:53AM 35.4128 -80.2142 70° East 402 463 18,400 1,320 Climbing FAA TRACON SMA TRACON (SMA)
10:53AM 35.4256 -80.1736 69° East 409 471 18,900 2,100 Climbing FAA TRACON SMA TRACON (SMA)
10:53AM 35.4403 -80.1214 71° East 415 478 19,800 2,340 Climbing FAA TRACON SMA TRACON (SMA)
10:54AM 35.4511 -80.0797 72° East 416 479 20,500 1,920 Climbing FAA TRACON SMA TRACON (SMA)
10:54AM 35.4617 -80.0383 73° East 415 478 21,100 1,800 Climbing FAA TRACON SMA TRACON (SMA)
10:54AM 35.4753 -79.9867 72° East 415 478 21,700 1,800 Climbing FAA TRACON SMA TRACON (SMA)
10:55AM 35.4858 -79.9444 73° East 416 479 22,300 1,380 Climbing FAA TRACON SMA TRACON (SMA)
10:55AM 35.4975 -79.9067 69° East 418 481 22,600 1,260 Climbing FAA TRACON SMA TRACON (SMA)
10:55AM 35.5069 -79.8597 76° East 421 484 23,200 1,560 Climbing FAA TRACON SMA TRACON (SMA)
10:55AM 35.5136 -79.8253 77° East 407 468 23,600 1,320 Climbing Washington Center
10:56AM 35.5519 -79.6869 71° East 418 481 24,900 1,320 Climbing Washington Center
10:58AM 35.5881 -79.5408 73° East 432 497 26,300 1,020 Climbing Washington Center
10:59AM 35.6303 -79.3972 70° East 432 497 27,000 300 Climbing Washington Center
11:00AM 35.6869 -79.2567 64° Northeast 444 511 27,000  Level Washington Center
11:01AM 35.7906 -79.1411 42° Northeast 440 506 27,000  Level Washington Center
11:02AM 35.9075 -79.0592 30° Northeast 451 519 27,000  Level Washington Center
11:03AM 36.0206 -78.9767 31° Northeast 466 536 27,000  Level Washington Center
11:03AM 36.1292 -78.8967 31° Northeast 461 531 27,000  Level Washington Center
11:04AM 36.2317 -78.8186 32° Northeast 449 517 27,000  Level Washington Center
11:06AM 36.3400 -78.7406 30° Northeast 443 510 27,000  Level Washington Center
11:07AM 36.4422 -78.6644 31° Northeast 432 497 27,000  Level Washington Center
11:07AM 36.5464 -78.5833 32° Northeast 432 497 27,000  Level Washington Center
11:09AM 36.6506 -78.5044 31° Northeast 432 497 27,000  Level Washington Center
11:10AM 36.7442 -78.4328 32° Northeast 432 497 27,000  Level Washington Center
11:11AM 36.8483 -78.3536 31° Northeast 432 497 27,000  Level Washington Center
11:12AM 36.9628 -78.2667 31° Northeast 437 503 27,000  Level Washington Center
11:13AM 37.0542 -78.1944 32° Northeast 432 497 27,000  Level Washington Center
11:14AM 37.1539 -78.1169 32° Northeast 432 497 27,000 -300 Level Washington Center
11:15AM 37.2578 -78.0394 31° Northeast 427 491 26,400 -1,200 Descending Washington Center
11:16AM 37.3594 -77.9617 31° Northeast 427 491 24,700 -1,740 Descending Washington Center
11:17AM 37.4569 -77.8836 32° Northeast 427 491 23,000 -1,380 Descending Washington Center
11:18AM 37.5542 -77.8133 30° Northeast 414 476 22,000 -540 Descending Washington Center
11:19AM 37.6575 -77.7506 26° Northeast 407 468 22,000 -1,020 Level Washington Center
11:20AM 37.7606 -77.6931 24° Northeast 397 457 20,000 -2,100 Descending Washington Center
11:21AM 37.8575 -77.6353 25° Northeast 387 445 17,800 -2,400 Descending Washington Center
11:22AM 37.9503 -77.5825 24° Northeast 380 437 15,300 -2,400 Descending Washington Center
11:23AM 38.0386 -77.5322 24° Northeast 362 417 13,000 -2,160 Descending Washington Center
11:24AM 38.1250 -77.4817 25° Northeast 343 395 11,000 -1,500 Descending Washington Center
11:25AM 38.2092 -77.4336 24° Northeast 336 387 10,100 -600 Descending Washington Center
11:26AM 38.2869 -77.3853 26° Northeast 318 366 9,900 -840 Descending Washington Center
11:27AM 38.3689 -77.3553 16° North 313 360 8,500 -1,380 Descending Washington Center
11:28AM 38.4542 -77.3600 358° North 297 342 7,200 -1,320 Descending Washington Center
11:29AM 38.5356 -77.3647 357° North 297 342 5,900 -1,320 Descending Washington Center
11:30AM 38.6189 -77.3667 359° North 297 342 4,600 -960 Descending Washington Center
11:31AM 38.7003 -77.3633 North 291 335 4,000 -300 Descending Washington Center
11:32AM 38.7900 -77.3600 North 291 335 4,000  Level Washington Center
11:33AM 38.8833 -77.3500 North 294 338 4,100 -240 Climbing Potomac TRACON
11:34AM 38.9500 -77.3500 360° North 265 305 3,600 -540 Descending Potomac TRACON
11:35AM 39.0333 -77.3500 360° North 254 292 3,100 -300 Descending Potomac TRACON
11:36AM 39.1000 -77.3500 360° North 257 296 3,000 -540 Descending Potomac TRACON
11:37AM 39.1667 -77.3667 349° North 249 287 2,000 -480 Descending Potomac TRACON
11:38AM 39.1333 -77.4167 229° Southwest 182 209 2,100  Climbing Potomac TRACON
11:39AM 39.0833 -77.4333 195° South 164 189 2,100  Level Potomac TRACON
11:40AM 39.0500 -77.4333 180° South 169 194 2,100  Level Potomac TRACON